Time;durP1;ratioP1;P1;durP2;ratioP2;P2;SDS_P1;SDS_P2;PMS_P1;PMS_P2;Temp;Humidity;BMP_temperature;BMP_pressure;BME280_temperature;BME280_humidity;BME280_pressure;Samples;Min_cycle;Max_cycle;Signal;HPM_P1;HPM_P2
2023/01/11 12:08:44;;;;;;;;;44.50;36.00;22.60;44.60;;;;;;109341;1277;35779;-68
2023/01/11 12:11:21;;;;;;;;;30.25;27.50;22.50;44.50;;;;;;111583;1253;44811;-62
2023/01/11 12:14:02;;;;;;;;;34.00;28.00;22.60;44.40;;;;;;111064;1256;164805;-59
2023/01/11 12:16:34;;;;;;;;;30.00;28.00;22.80;44.70;;;;;;111698;1249;56295;-61
2023/01/11 12:19:01;;;;;;;;;32.00;30.00;23.00;44.30;;;;;;111706;1254;49110;-61
2023/01/11 12:21:31;;;;;;;;;31.50;27.75;23.20;44.20;;;;;;111277;1251;663097;-61
2023/01/11 12:24:28;;;;;;;;;29.00;25.75;23.30;44.10;;;;;;112132;1250;45209;-61
2023/01/11 12:27:11;;;;;;;;;34.00;30.00;23.40;44.10;;;;;;111995;1250;55285;-61
2023/01/11 12:29:45;;;;;;;;;29.67;27.00;23.50;44.00;;;;;;112136;1250;56560;-60
2023/01/11 12:32:47;;;;;;;;;37.50;29.25;23.60;43.90;;;;;;112110;1250;50556;-63
2023/01/11 12:35:45;;;;;;;;;26.33;24.67;23.80;44.00;;;;;;112020;1246;49745;-62
2023/01/11 12:38:31;;;;;;;;;32.00;29.50;23.80;43.90;;;;;;112097;1247;45337;-62
2023/01/11 12:41:47;;;;;;;;;30.75;28.50;23.90;43.90;;;;;;112095;1247;55238;-60
2023/01/11 12:44:52;;;;;;;;;32.00;28.00;24.00;43.80;;;;;;112091;1248;55679;-60
2023/01/11 12:47:38;;;;;;;;;33.75;30.75;24.00;44.00;;;;;;111880;1250;49972;-61
2023/01/11 12:50:17;;;;;;;;;34.00;28.00;24.10;43.80;;;;;;112114;1250;49163;-73
2023/01/11 12:53:00;;;;;;;;;30.50;28.00;24.10;43.80;;;;;;112131;1249;44896;-62
2023/01/11 12:55:44;;;;;;;;;29.50;27.00;24.20;43.90;;;;;;112092;1250;55766;-61
2023/01/11 12:58:43;;;;;;;;;32.75;28.50;24.20;43.70;;;;;;112068;1248;56887;-62
2023/01/11 13:01:24;;;;;;;;;31.00;29.00;24.20;43.70;;;;;;112107;1250;49872;-61
2023/01/11 13:04:10;;;;;;;;;33.25;28.25;24.20;43.60;;;;;;112117;1250;50416;-61
2023/01/11 13:06:41;;;;;;;;;30.25;25.75;24.20;43.60;;;;;;112108;1248;45353;-62
2023/01/11 13:09:11;;;;;;;;;28.25;24.75;24.30;43.90;;;;;;112107;1250;58322;-61
2023/01/11 13:12:07;;;;;;;;;28.00;26.67;24.30;43.70;;;;;;112127;1250;55712;-62
2023/01/11 13:14:46;;;;;;;;;32.67;30.00;24.30;43.70;;;;;;112077;1250;49130;-62
2023/01/11 13:17:41;;;;;;;;;24.75;23.00;24.30;43.70;;;;;;112097;1250;49074;-62
2023/01/11 13:20:32;;;;;;;;;29.00;26.00;24.30;43.70;;;;;;112100;1251;45085;-61
2023/01/11 13:23:15;;;;;;;;;27.50;26.25;24.30;43.70;;;;;;112066;1246;56098;-61
2023/01/11 13:25:45;;;;;;;;;30.50;28.75;24.30;43.90;;;;;;112157;1250;55861;-62
2023/01/11 13:28:28;;;;;;;;;30.50;27.50;24.30;43.70;;;;;;112158;1250;50607;-61
2023/01/11 13:30:56;;;;;;;;;29.50;24.00;24.40;43.80;;;;;;112104;1251;48959;-62
2023/01/11 13:33:26;;;;;;;;;31.50;26.00;24.40;43.80;;;;;;112092;1251;45103;-61
2023/01/11 13:36:20;;;;;;;;;30.75;28.75;24.40;43.80;;;;;;112110;1250;55632;-61
2023/01/11 13:38:55;;;;;;;;;27.75;26.50;24.40;43.80;;;;;;112104;1250;55329;-67
2023/01/11 13:41:31;;;;;;;;;30.50;29.00;24.40;43.70;;;;;;112112;1247;49165;-63
2023/01/11 13:44:03;;;;;;;;;29.25;25.25;24.50;43.80;;;;;;112124;1250;49735;-66
2023/01/11 13:46:29;;;;;;;;;29.75;26.50;24.50;43.80;;;;;;112074;1247;45272;-64
2023/01/11 13:49:07;;;;;;;;;33.67;27.67;24.50;43.80;;;;;;112100;1247;55681;-68
2023/01/11 13:51:44;;;;;;;;;29.75;26.25;24.50;43.80;;;;;;112086;1250;56246;-66
2023/01/11 13:54:15;;;;;;;;;31.50;27.75;24.50;43.80;;;;;;112087;1251;50008;-64
2023/01/11 13:56:49;;;;;;;;;29.33;24.33;24.50;43.90;;;;;;112104;1250;49599;-65
2023/01/11 13:59:30;;;;;;;;;27.75;24.75;24.50;44.40;;;;;;112099;1251;45789;-63
2023/01/11 14:01:57;;;;;;;;;29.33;27.00;24.50;43.90;;;;;;112084;1250;56087;-63
2023/01/11 14:04:56;;;;;;;;;28.75;25.00;24.50;43.90;;;;;;112126;1251;56443;-61
2023/01/11 14:07:59;;;;;;;;;29.50;26.00;24.50;43.90;;;;;;111867;1250;49622;-61
2023/01/11 14:10:29;;;;;;;;;31.00;28.00;24.50;43.90;;;;;;112083;1250;50384;-62
2023/01/11 14:14:11;;;;;;;;;30.75;29.25;24.50;43.80;;;;;;112449;1250;46611;-61
2023/01/11 14:16:09;;;;;;;;;27.50;22.50;24.40;43.60;;;;;;112167;1248;55920;-62
2023/01/11 14:19:19;;;;;;;;;22.00;20.00;24.50;43.20;;;;;;112097;1251;56056;-62
2023/01/11 14:21:52;;;;;;;;;25.25;23.25;24.50;43.00;;;;;;112006;1248;49563;-61
2023/01/11 14:24:20;;;;;;;;;29.00;24.75;24.40;42.80;;;;;;112083;1247;49112;-62
2023/01/11 14:26:53;;;;;;;;;25.50;23.00;24.40;42.70;;;;;;111828;1252;44731;-62
2023/01/11 14:29:42;;;;;;;;;25.67;22.67;24.40;42.70;;;;;;112053;1251;55682;-62
2023/01/11 14:32:27;;;;;;;;;19.25;17.75;24.30;42.60;;;;;;112093;1251;55666;-62
2023/01/11 14:35:14;;;;;;;;;25.75;21.50;24.20;42.50;;;;;;112060;1247;50070;-62
2023/01/11 14:38:26;;;;;;;;;23.00;21.00;24.20;42.50;;;;;;112063;1251;50111;-62
2023/01/11 14:40:58;;;;;;;;;23.75;22.00;24.10;42.50;;;;;;112078;1247;45134;-62
2023/01/11 14:43:29;;;;;;;;;23.00;19.75;24.10;42.40;;;;;;112063;1251;56021;-62
2023/01/11 14:46:14;;;;;;;;;22.00;19.50;24.10;42.40;;;;;;112081;1248;55741;-62
2023/01/11 14:49:02;;;;;;;;;21.50;18.50;24.00;42.40;;;;;;112078;1251;49369;-61
2023/01/11 14:51:30;;;;;;;;;21.67;19.33;24.00;42.60;;;;;;112089;1247;48695;-67
2023/01/11 14:54:02;;;;;;;;;23.00;16.00;24.00;42.20;;;;;;112068;1251;46065;-64
2023/01/11 14:56:45;;;;;;;;;21.50;19.00;23.90;42.50;;;;;;112124;1249;55719;-63
2023/01/11 14:59:32;;;;;;;;;21.00;17.75;24.00;42.50;;;;;;112054;1250;56160;-63
2023/01/11 15:02:02;;;;;;;;;19.25;15.75;24.00;42.60;;;;;;112071;1247;50290;-63
2023/01/11 15:04:31;;;;;;;;;18.67;17.67;24.00;42.60;;;;;;112071;1251;49588;-64
2023/01/11 15:06:58;;;;;;;;;19.00;17.67;24.00;42.80;;;;;;111931;1251;45096;-64
2023/01/11 15:09:42;;;;;;;;;21.33;17.33;24.10;42.90;;;;;;112090;1246;55281;-64
2023/01/11 15:12:14;;;;;;;;;21.00;18.00;24.00;43.00;;;;;;112032;1250;56043;-60
2023/01/11 15:14:53;;;;;;;;;15.75;13.75;24.10;43.00;;;;;;112089;1251;49750;-61
2023/01/11 15:20:13;;;;;;;;;19.50;16.50;24.00;41.20;;;;;;112101;1247;45341;-60
2023/01/11 15:22:40;;;;;;;;;17.50;16.00;24.00;42.00;;;;;;112156;1251;55219;-64
2023/01/11 15:25:27;;;;;;;;;17.50;15.00;24.00;42.00;;;;;;111774;1248;56242;-66
2023/01/11 15:27:55;;;;;;;;;17.00;15.00;23.90;42.10;;;;;;112086;1251;50432;-61
2023/01/11 15:30:28;;;;;;;;;21.00;16.00;24.00;42.40;;;;;;112149;1247;49254;-58
2023/01/11 15:33:17;;;;;;;;;18.75;15.75;24.00;42.70;;;;;;112130;1247;45438;-61
2023/01/11 15:35:56;;;;;;;;;19.00;16.67;24.10;42.70;;;;;;112099;1247;55857;-61
2023/01/11 15:38:53;;;;;;;;;16.25;15.00;24.20;43.00;;;;;;112084;1247;56461;-61
2023/01/11 15:42:05;;;;;;;;;16.00;15.00;24.30;43.20;;;;;;112081;1251;50222;-61
2023/01/11 15:44:47;;;;;;;;;17.25;16.25;24.40;43.00;;;;;;111847;1253;50141;-62
2023/01/11 15:47:48;;;;;;;;;16.00;15.00;24.40;43.40;;;;;;112069;1251;45238;-62
2023/01/11 15:50:37;;;;;;;;;19.00;16.75;24.50;43.40;;;;;;112098;1251;56455;-60
2023/01/11 15:53:29;;;;;;;;;22.67;18.00;24.60;43.50;;;;;;112055;1251;55635;-60
2023/01/11 15:56:24;;;;;;;;;18.00;16.25;24.60;44.10;;;;;;112075;1251;49626;-60
2023/01/11 15:59:23;;;;;;;;;17.00;16.00;24.70;44.10;;;;;;112089;1251;50065;-61
2023/01/11 16:02:12;;;;;;;;;21.25;18.00;24.70;44.40;;;;;;112115;1247;45897;-60
2023/01/11 16:04:49;;;;;;;;;19.25;16.25;24.80;44.40;;;;;;112100;1247;55625;-61
2023/01/11 16:07:22;;;;;;;;;16.00;15.00;24.80;43.90;;;;;;112033;1251;55743;-62
2023/01/11 16:10:29;;;;;;;;;17.50;15.25;24.90;44.20;;;;;;112070;1251;49264;-62
2023/01/11 16:13:33;;;;;;;;;19.33;16.00;24.90;44.50;;;;;;111807;1247;48961;-62
2023/01/11 16:16:05;;;;;;;;;18.00;15.00;24.90;44.80;;;;;;112066;1251;45689;-67
2023/01/11 16:18:41;;;;;;;;;17.25;16.00;25.00;44.90;;;;;;111810;1251;55732;-65
2023/01/11 16:21:20;;;;;;;;;21.67;18.67;25.00;44.80;;;;;;111803;1252;56273;-61
2023/01/11 16:23:47;;;;;;;;;22.50;16.00;25.00;45.00;;;;;;112072;1247;49488;-62
2023/01/11 16:26:19;;;;;;;;;16.25;15.00;25.00;45.50;;;;;;112077;1248;49452;-61
2023/01/11 16:28:57;;;;;;;;;18.75;17.25;25.00;45.00;;;;;;112127;1248;44597;-62
2023/01/11 16:31:25;;;;;;;;;19.25;17.75;25.00;44.90;;;;;;112142;1251;56131;-60
2023/01/11 16:33:52;;;;;;;;;16.50;15.00;25.00;44.80;;;;;;112073;1247;55844;-61
2023/01/11 16:36:22;;;;;;;;;17.67;16.33;25.10;44.90;;;;;;112109;1247;49973;-61
2023/01/11 16:39:05;;;;;;;;;16.75;15.50;25.00;44.80;;;;;;112066;1248;48996;-61
2023/01/11 16:41:55;;;;;;;;;17.00;16.00;25.00;45.00;;;;;;112071;1247;44685;-61
2023/01/11 16:44:32;;;;;;;;;17.75;15.00;25.00;44.90;;;;;;112100;1247;55441;-61
2023/01/11 16:47:10;;;;;;;;;19.33;16.67;25.10;45.00;;;;;;112076;1251;55885;-62
2023/01/11 16:49:38;;;;;;;;;18.67;17.00;25.10;45.20;;;;;;112091;1251;49808;-61
2023/01/11 16:52:27;;;;;;;;;19.67;17.67;25.10;44.90;;;;;;112075;1251;50621;-61
2023/01/11 16:54:55;;;;;;;;;17.00;15.67;25.10;44.70;;;;;;112066;1251;45861;-63
2023/01/11 16:57:28;;;;;;;;;18.00;17.00;25.00;44.70;;;;;;112103;1247;55551;-73
2023/01/11 17:00:27;;;;;;;;;22.67;18.00;25.10;44.80;;;;;;112084;1251;56669;-68
2023/01/11 17:03:16;;;;;;;;;19.25;16.00;25.10;45.20;;;;;;112039;1247;50001;-61
2023/01/11 17:05:54;;;;;;;;;18.75;16.25;25.10;44.40;;;;;;112053;1251;49863;-62
2023/01/11 17:08:34;;;;;;;;;20.00;17.00;25.10;43.50;;;;;;112073;1251;45454;-60
2023/01/11 17:11:15;;;;;;;;;21.75;18.75;25.10;43.50;;;;;;112055;1251;56425;-60
2023/01/11 17:13:54;;;;;;;;;18.50;15.50;25.10;43.80;;;;;;112263;1251;55415;-64
2023/01/11 17:16:27;;;;;;;;;20.33;16.00;25.00;43.50;;;;;;112118;1251;49549;-61
2023/01/11 17:18:54;;;;;;;;;18.00;16.00;25.10;43.40;;;;;;112068;1249;49404;-67
2023/01/11 17:21:23;;;;;;;;;16.75;15.50;25.10;43.60;;;;;;112098;1249;45873;-61
2023/01/11 17:23:53;;;;;;;;;16.50;15.00;25.00;43.40;;;;;;112112;1244;55930;-61
2023/01/11 17:26:26;;;;;;;;;20.00;18.25;24.90;43.50;;;;;;112125;1250;56241;-66
2023/01/11 17:28:56;;;;;;;;;19.25;18.00;24.90;43.60;;;;;;112135;1249;50187;-60
2023/01/11 17:31:30;;;;;;;;;20.75;18.00;24.90;43.70;;;;;;112099;1250;49108;-62
2023/01/11 17:34:09;;;;;;;;;18.33;17.00;24.90;44.70;;;;;;112139;1247;45215;-60
2023/01/11 17:36:36;;;;;;;;;21.00;19.00;24.90;44.30;;;;;;112106;1250;55931;-61
2023/01/11 17:39:04;;;;;;;;;22.67;20.00;24.90;44.50;;;;;;112126;1247;56806;-61
2023/01/11 17:47:07;;;;;;;;;19.00;18.00;24.90;44.60;;;;;;112060;1248;46267;-63
2023/01/11 17:49:35;;;;;;;;;23.00;19.00;24.80;44.40;;;;;;112100;1249;57118;-61
2023/01/11 17:52:19;;;;;;;;;23.25;19.25;24.80;44.00;;;;;;112120;1249;56195;-61
2023/01/11 17:54:46;;;;;;;;;24.00;21.33;24.80;43.70;;;;;;112100;1246;49327;-61
2023/01/11 17:57:13;;;;;;;;;22.33;21.33;24.80;44.00;;;;;;112117;1244;50141;-64
2023/01/11 17:59:40;;;;;;;;;28.25;23.00;24.70;44.00;;;;;;112135;1249;44919;-60
2023/01/11 18:02:16;;;;;;;;;28.75;21.00;24.70;44.60;;;;;;112136;1249;55317;-61
2023/01/11 18:04:42;;;;;;;;;22.00;19.00;24.70;44.70;;;;;;112072;1250;55271;-60
2023/01/11 18:07:17;;;;;;;;;20.00;18.75;24.70;45.50;;;;;;112125;1249;49541;-60
2023/01/11 18:09:47;;;;;;;;;24.75;24.50;24.70;45.40;;;;;;112086;1249;50296;-60
2023/01/11 18:12:20;;;;;;;;;26.00;20.25;24.70;45.50;;;;;;112112;1249;45123;-60
2023/01/11 18:14:51;;;;;;;;;25.33;20.67;24.70;45.70;;;;;;112116;1249;55833;-61
2023/01/11 18:17:29;;;;;;;;;23.75;20.25;24.70;46.00;;;;;;112098;1249;56158;-59
2023/01/11 18:19:56;;;;;;;;;25.00;19.67;24.70;46.00;;;;;;112097;1249;49223;-59
2023/01/11 18:22:29;;;;;;;;;23.00;20.50;24.70;46.10;;;;;;112078;1250;49875;-60
2023/01/11 18:24:58;;;;;;;;;26.00;23.00;24.70;46.30;;;;;;112093;1250;45065;-60
2023/01/11 18:27:34;;;;;;;;;21.00;19.67;24.70;46.20;;;;;;112096;1247;56036;-60
2023/01/11 18:30:06;;;;;;;;;22.50;21.00;24.70;46.20;;;;;;112104;1250;55588;-60
2023/01/11 18:32:43;;;;;;;;;27.00;21.75;24.60;46.10;;;;;;112110;1250;49693;-59
2023/01/11 18:35:16;;;;;;;;;26.00;23.00;24.60;46.10;;;;;;112074;1250;50020;-60
2023/01/11 18:37:43;;;;;;;;;23.00;20.67;24.60;46.10;;;;;;112107;1250;45481;-60
2023/01/11 18:40:15;;;;;;;;;24.67;21.67;24.60;46.00;;;;;;112108;1249;55673;-60
2023/01/11 18:42:44;;;;;;;;;19.00;18.00;24.60;46.00;;;;;;112101;1250;55570;-60
2023/01/11 18:45:12;;;;;;;;;25.75;22.75;24.60;45.90;;;;;;112098;1250;49027;-60
2023/01/11 18:47:39;;;;;;;;;25.33;23.00;24.60;45.90;;;;;;112069;1246;49063;-60
2023/01/11 18:50:08;;;;;;;;;28.67;26.00;24.60;45.90;;;;;;112104;1250;44651;-59
2023/01/11 18:52:35;;;;;;;;;23.50;21.50;24.60;45.90;;;;;;112136;1250;56276;-63
2023/01/11 18:55:04;;;;;;;;;26.00;24.67;24.50;45.80;;;;;;112149;1247;55955;-61
2023/01/11 18:57:31;;;;;;;;;27.67;20.33;24.50;45.80;;;;;;112142;1246;49623;-61
2023/01/11 18:59:58;;;;;;;;;26.50;23.75;24.50;45.80;;;;;;112113;1250;49647;-63
2023/01/11 19:02:27;;;;;;;;;25.67;23.33;24.50;45.90;;;;;;112122;1250;46047;-61
2023/01/11 19:04:55;;;;;;;;;33.75;28.00;24.50;45.90;;;;;;112083;1250;56468;-61
2023/01/11 19:07:24;;;;;;;;;29.50;22.50;24.50;45.90;;;;;;112101;1250;56797;-63
2023/01/11 19:09:53;;;;;;;;;27.00;23.33;24.50;46.00;;;;;;112085;1247;49343;-59
2023/01/11 19:12:21;;;;;;;;;28.25;27.00;24.50;46.00;;;;;;112107;1250;49095;-63
2023/01/11 19:14:48;;;;;;;;;25.75;24.00;24.60;45.50;;;;;;112103;1250;45164;-64
2023/01/11 19:17:15;;;;;;;;;30.33;29.33;24.50;45.80;;;;;;112114;1247;56600;-65
2023/01/11 19:19:42;;;;;;;;;30.00;26.75;24.60;45.70;;;;;;112093;1250;55315;-65
2023/01/11 19:22:10;;;;;;;;;32.00;29.50;24.60;45.60;;;;;;112071;1248;50192;-65
2023/01/11 19:24:38;;;;;;;;;39.00;32.00;24.70;45.50;;;;;;112116;1250;49465;-63
2023/01/11 19:27:05;;;;;;;;;35.50;30.00;24.80;45.40;;;;;;112078;1250;46238;-63
2023/01/11 19:29:32;;;;;;;;;37.00;31.00;24.80;45.30;;;;;;112077;1250;57180;-62
2023/01/11 19:31:59;;;;;;;;;31.50;29.25;24.90;45.20;;;;;;112123;1249;55290;-62
2023/01/11 19:34:26;;;;;;;;;35.25;29.50;24.90;45.00;;;;;;112095;1246;50854;-62
2023/01/11 19:36:53;;;;;;;;;38.33;30.33;24.90;44.90;;;;;;112079;1247;49390;-62
2023/01/11 19:39:20;;;;;;;;;29.25;27.50;24.90;44.80;;;;;;112081;1247;44607;-63
2023/01/11 19:41:56;;;;;;;;;36.75;30.50;25.00;44.80;;;;;;112081;1248;55639;-63
2023/01/11 19:44:29;;;;;;;;;35.00;29.50;25.00;44.70;;;;;;112092;1250;55885;-65
2023/01/11 19:46:57;;;;;;;;;34.50;29.25;24.90;44.50;;;;;;112093;1250;49381;-64
2023/01/11 19:49:24;;;;;;;;;36.33;30.00;25.00;44.50;;;;;;112076;1250;49915;-65
2023/01/11 19:51:51;;;;;;;;;36.50;30.50;25.00;44.40;;;;;;112089;1251;44964;-64
2023/01/11 19:54:20;;;;;;;;;44.00;33.33;25.10;44.30;;;;;;112040;1250;56064;-65
2023/01/11 19:56:50;;;;;;;;;39.75;32.75;25.00;44.20;;;;;;112123;1250;56060;-63
2023/01/11 19:59:18;;;;;;;;;37.00;32.00;25.10;44.20;;;;;;112115;1250;49540;-65
2023/01/11 20:01:47;;;;;;;;;40.75;33.75;25.10;44.20;;;;;;112083;1250;49527;-63
2023/01/11 20:04:15;;;;;;;;;38.00;31.00;25.00;44.00;;;;;;112170;1248;46343;-62
2023/01/11 20:06:49;;;;;;;;;47.50;37.00;25.00;44.10;;;;;;112078;1250;55705;-64
2023/01/11 20:09:20;;;;;;;;;40.75;31.00;25.00;44.20;;;;;;112119;1250;56542;-66
2023/01/11 20:11:51;;;;;;;;;40.75;32.25;24.90;43.80;;;;;;112057;1250;50707;-65
2023/01/11 20:14:19;;;;;;;;;42.00;34.75;24.90;43.80;;;;;;112083;1250;50479;-65
2023/01/11 20:16:46;;;;;;;;;40.75;33.25;24.90;43.70;;;;;;112057;1248;45810;-62
2023/01/11 20:19:13;;;;;;;;;40.50;34.00;24.90;43.70;;;;;;112142;1250;55989;-64
2023/01/11 20:21:40;;;;;;;;;40.67;33.33;24.90;43.70;;;;;;112095;1247;56226;-60
2023/01/11 20:24:11;;;;;;;;;37.75;32.00;24.90;43.50;;;;;;112109;1248;49609;-60
2023/01/11 20:26:38;;;;;;;;;38.25;30.75;24.90;43.60;;;;;;112090;1250;49319;-59
2023/01/11 20:29:06;;;;;;;;;37.33;33.00;24.90;43.60;;;;;;112153;1250;45166;-60
2023/01/11 20:31:34;;;;;;;;;32.00;29.50;24.90;43.50;;;;;;112173;1249;55449;-60
2023/01/11 20:34:10;;;;;;;;;38.00;31.75;24.90;43.50;;;;;;112119;1245;55421;-60
2023/01/11 20:36:37;;;;;;;;;36.50;32.25;24.80;43.40;;;;;;112119;1249;49780;-60
2023/01/11 20:39:04;;;;;;;;;40.00;33.50;24.80;43.40;;;;;;112093;1244;49566;-60
2023/01/11 20:41:47;;;;;;;;;37.50;30.75;24.80;43.30;;;;;;112089;1249;45790;-60
2023/01/11 20:44:23;;;;;;;;;38.00;32.00;24.70;43.50;;;;;;112115;1250;55263;-60
2023/01/11 20:46:51;;;;;;;;;41.00;35.00;24.70;43.00;;;;;;112106;1247;55495;-59
2023/01/11 20:49:24;;;;;;;;;40.00;33.33;24.70;43.10;;;;;;112119;1250;49815;-59
2023/01/11 20:51:51;;;;;;;;;38.25;32.00;24.70;42.90;;;;;;112045;1250;50590;-60
2023/01/11 20:54:18;;;;;;;;;43.00;31.50;24.60;42.90;;;;;;112101;1250;45126;-59
2023/01/11 20:56:45;;;;;;;;;42.75;34.00;24.60;43.00;;;;;;112104;1250;56946;-60
2023/01/11 20:59:18;;;;;;;;;41.67;32.00;24.50;43.10;;;;;;112115;1250;55550;-59
2023/01/11 21:01:46;;;;;;;;;39.50;32.00;24.60;43.30;;;;;;112097;1247;49633;-59
2023/01/11 21:04:15;;;;;;;;;33.50;30.50;24.60;43.40;;;;;;112103;1250;50406;-60
2023/01/11 21:06:44;;;;;;;;;35.25;30.00;24.60;43.30;;;;;;112102;1250;45568;-61
2023/01/11 21:09:13;;;;;;;;;36.67;30.00;24.70;43.40;;;;;;112082;1250;56346;-59
2023/01/11 21:11:41;;;;;;;;;34.75;30.50;24.70;43.30;;;;;;112118;1247;55459;-59
2023/01/11 21:14:10;;;;;;;;;35.33;31.00;24.80;43.40;;;;;;112136;1250;49142;-61
2023/01/11 21:16:43;;;;;;;;;37.00;32.67;24.90;43.40;;;;;;112073;1250;49388;-61
2023/01/11 21:19:11;;;;;;;;;39.00;33.25;24.90;43.40;;;;;;112151;1250;45112;-59
2023/01/11 21:21:38;;;;;;;;;37.25;32.00;25.00;43.40;;;;;;112131;1250;56600;-59
2023/01/11 21:24:06;;;;;;;;;35.00;30.75;25.10;43.40;;;;;;112060;1250;55669;-60
2023/01/11 21:26:33;;;;;;;;;32.00;27.67;25.20;43.50;;;;;;112110;1250;49907;-61
2023/01/11 21:29:03;;;;;;;;;32.67;30.00;25.20;43.50;;;;;;112086;1250;49571;-60
2023/01/11 21:31:31;;;;;;;;;33.67;30.33;25.20;43.50;;;;;;112129;1250;44951;-59
2023/01/11 21:33:59;;;;;;;;;31.75;27.00;25.30;43.60;;;;;;112127;1250;55836;-60
2023/01/11 21:36:29;;;;;;;;;33.50;29.75;25.30;43.60;;;;;;112123;1246;55270;-60
2023/01/11 21:38:57;;;;;;;;;40.33;33.00;25.30;43.60;;;;;;112094;1247;50525;-60
2023/01/11 21:44:14;;;;;;;;;36.00;30.75;25.40;43.70;;;;;;112103;1250;45426;-60
2023/01/11 21:46:41;;;;;;;;;39.67;33.00;25.40;43.80;;;;;;112104;1248;56228;-60
2023/01/11 21:49:09;;;;;;;;;36.00;30.33;25.50;43.80;;;;;;112108;1250;56132;-60
2023/01/11 21:51:36;;;;;;;;;33.00;31.33;25.50;43.80;;;;;;112093;1246;50248;-61
2023/01/11 21:54:07;;;;;;;;;33.00;29.67;25.50;43.80;;;;;;112083;1250;48879;-59
2023/01/11 21:56:34;;;;;;;;;28.00;26.75;25.60;44.10;;;;;;112109;1246;44858;-59
2023/01/11 21:59:02;;;;;;;;;31.50;29.50;25.60;43.90;;;;;;112119;1245;57215;-60
2023/01/11 22:01:29;;;;;;;;;33.25;28.00;25.60;43.90;;;;;;112073;1250;56013;-60
2023/01/11 22:03:56;;;;;;;;;36.00;32.00;25.60;43.90;;;;;;112133;1249;49239;-61
2023/01/11 22:06:23;;;;;;;;;34.33;32.00;25.60;44.00;;;;;;112091;1247;49391;-61
2023/01/11 22:08:50;;;;;;;;;38.00;33.00;25.60;44.00;;;;;;112133;1250;45250;-61
2023/01/11 22:11:17;;;;;;;;;36.00;31.00;25.60;44.00;;;;;;112100;1250;57026;-60
2023/01/11 22:13:44;;;;;;;;;31.50;27.50;25.60;44.00;;;;;;112115;1250;56098;-60
2023/01/11 22:16:13;;;;;;;;;33.67;30.00;25.60;44.00;;;;;;112100;1247;49251;-60
2023/01/11 22:18:41;;;;;;;;;35.00;31.67;25.50;44.00;;;;;;112104;1250;49315;-59
2023/01/11 22:21:13;;;;;;;;;35.75;30.25;25.50;44.00;;;;;;112129;1250;44761;-60
2023/01/11 22:23:40;;;;;;;;;29.00;27.25;25.50;43.90;;;;;;112121;1250;55410;-60
2023/01/11 22:26:09;;;;;;;;;31.67;29.00;25.50;43.80;;;;;;112136;1250;56041;-60
2023/01/11 22:29:10;;;;;;;;;29.00;27.67;25.50;43.70;;;;;;112131;1249;50559;-60
2023/01/11 22:31:26;;;;;;;;;36.25;29.00;25.40;43.70;;;;;;112124;1249;49158;-59
2023/01/11 22:33:53;;;;;;;;;30.75;29.00;25.40;43.90;;;;;;112167;1249;44839;-61
2023/01/11 22:36:22;;;;;;;;;38.50;34.75;25.40;43.70;;;;;;112117;1249;55804;-60
2023/01/11 22:38:50;;;;;;;;;37.00;31.00;25.40;43.80;;;;;;112084;1250;56316;-60
2023/01/11 22:41:17;;;;;;;;;34.50;28.00;25.30;43.30;;;;;;112092;1249;48989;-60
2023/01/11 22:43:45;;;;;;;;;28.75;25.50;25.30;44.00;;;;;;112112;1250;49116;-60
2023/01/11 22:46:18;;;;;;;;;33.50;29.50;25.20;43.80;;;;;;112109;1248;44867;-61
2023/01/11 22:48:48;;;;;;;;;34.00;28.00;25.20;43.80;;;;;;112094;1248;55752;-60
2023/01/11 22:51:18;;;;;;;;;37.25;32.75;25.20;43.90;;;;;;112089;1250;55253;-60
2023/01/11 22:53:47;;;;;;;;;33.00;29.50;25.10;43.90;;;;;;112107;1246;49012;-61
2023/01/11 22:56:20;;;;;;;;;35.00;29.00;25.10;43.90;;;;;;112116;1250;49732;-60
2023/01/11 22:58:49;;;;;;;;;37.25;33.00;25.10;44.00;;;;;;112105;1250;44713;-60
2023/01/11 23:01:27;;;;;;;;;30.25;28.50;25.00;43.90;;;;;;112104;1250;56795;-60
2023/01/11 23:03:55;;;;;;;;;37.75;33.50;25.00;44.00;;;;;;112084;1247;56240;-61
2023/01/11 23:06:23;;;;;;;;;35.00;31.00;25.00;44.00;;;;;;112099;1248;49777;-60
2023/01/11 23:08:52;;;;;;;;;38.00;31.75;24.90;43.90;;;;;;112122;1247;49049;-60
2023/01/11 23:14:10;;;;;;;;;34.00;29.00;24.90;44.00;;;;;;112142;1250;56228;-60
2023/01/11 23:16:38;;;;;;;;;29.67;26.33;24.90;44.10;;;;;;112082;1250;55447;-60
2023/01/11 23:19:06;;;;;;;;;32.00;28.00;25.00;44.40;;;;;;112104;1250;50133;-60
2023/01/11 23:21:33;;;;;;;;;35.50;29.00;25.00;44.50;;;;;;112103;1250;49116;-60
2023/01/11 23:24:01;;;;;;;;;31.67;28.00;25.10;44.60;;;;;;112104;1250;45460;-61
2023/01/11 23:26:28;;;;;;;;;32.00;29.00;25.10;44.60;;;;;;112122;1250;56172;-59
2023/01/11 23:28:55;;;;;;;;;33.00;29.00;25.20;44.50;;;;;;112079;1250;55942;-59
2023/01/11 23:31:24;;;;;;;;;31.50;28.75;25.20;44.60;;;;;;112114;1246;50125;-60
2023/01/11 23:33:54;;;;;;;;;30.33;26.33;25.30;44.80;;;;;;112104;1250;48962;-60
2023/01/11 23:36:25;;;;;;;;;31.50;29.25;25.40;44.60;;;;;;112137;1250;45450;-59
2023/01/11 23:38:52;;;;;;;;;36.33;32.33;25.40;44.60;;;;;;112079;1250;55735;-60
2023/01/11 23:44:08;;;;;;;;;35.00;32.00;25.50;44.50;;;;;;112247;1249;49145;-60
2023/01/11 23:49:23;;;;;;;;;32.67;29.67;25.50;44.40;;;;;;112265;1244;45275;-62
2023/01/11 23:51:51;;;;;;;;;29.25;27.75;25.60;44.40;;;;;;112281;1249;56139;-62
2023/01/11 23:54:18;;;;;;;;;29.00;27.00;25.60;44.30;;;;;;112260;1244;56794;-60
2023/01/11 23:56:45;;;;;;;;;29.00;27.25;25.60;44.30;;;;;;112223;1249;49367;-60
2023/01/11 23:59:12;;;;;;;;;32.25;28.00;25.60;44.30;;;;;;112243;1249;49828;-60
